Time;durP1;ratioP1;P1;durP2;ratioP2;P2;SDS_P1;SDS_P2;PMS_P1;PMS_P2;Temp;Humidity;BMP_temperature;BMP_pressure;BME280_temperature;BME280_humidity;BME280_pressure;Samples;Min_cycle;Max_cycle;Signal;HPM_P1;HPM_P2
2022/01/14 00:02:09;;;;;;;;;;;;;;;-1.71;81.02;98377.06;5039570;28;19974;-76
2022/01/14 00:04:36;;;;;;;;;;;;;;;-1.71;81.00;98377.91;5051273;28;19956;-74
2022/01/14 00:07:02;;;;;;;;;;;;;;;-1.72;80.95;98378.81;5057391;28;19951;-74
2022/01/14 00:09:30;;;;;;;;;;;;;;;-1.73;80.88;98376.34;5055917;28;20332;-75
2022/01/14 00:11:58;;;;;;;;;;;;;;;-1.75;80.59;98376.44;5052169;28;19967;-74
2022/01/14 00:17:04;;;;;;;;;;;;;;;-1.77;80.84;98374.88;5049203;28;20304;-75
2022/01/14 00:19:30;;;;;;;;;;;;;;;-1.26;100.00;98373.44;5050186;28;19963;-75
2022/01/14 00:21:56;;;;;;;;;;;;;;;-0.09;100.00;98373.59;5036057;28;19973;-78
2022/01/14 00:32:29;;;;;;;;;;;;;;;2.93;79.95;98357.53;5052989;28;20398;-79
2022/01/14 00:34:55;;;;;;;;;;;;;;;3.31;75.87;98355.38;5047827;28;19978;-79
2022/01/14 00:37:21;;;;;;;;;;;;;;;3.55;73.66;98353.38;5066490;28;19987;-79
2022/01/14 00:39:47;;;;;;;;;;;;;;;3.78;71.91;98351.50;5062847;28;19970;-80
2022/01/14 00:42:14;;;;;;;;;;;;;;;3.96;69.98;98356.09;5051426;28;19980;-75
2022/01/14 00:44:40;;;;;;;;;;;;;;;3.83;69.27;98356.28;5050584;28;19960;-75
2022/01/14 00:47:06;;;;;;;;;;;;;;;3.31;68.50;98360.56;5048623;28;19962;-75
2022/01/14 00:49:32;;;;;;;;;;;;;;;2.70;68.11;98363.72;5055730;28;19964;-75
2022/01/14 00:51:58;;;;;;;;;;;;;;;2.09;69.38;98361.50;5046650;28;19976;-74
2022/01/14 00:54:25;;;;;;;;;;;;;;;1.54;70.48;98364.72;5066271;28;20006;-75
2022/01/14 00:59:33;;;;;;;;;;;;;;;0.69;72.70;98366.56;5039807;28;19955;-74
2022/01/14 01:02:00;;;;;;;;;;;;;;;0.37;73.62;98365.28;5067280;28;19978;-74
2022/01/14 01:04:30;;;;;;;;;;;;;;;0.12;74.17;98363.56;5057962;28;19963;-75
2022/01/14 01:06:56;;;;;;;;;;;;;;;-0.12;74.28;98368.63;5050490;28;19956;-75
2022/01/14 01:09:24;;;;;;;;;;;;;;;-0.32;74.66;98363.97;5059792;28;19951;-75
2022/01/14 01:11:55;;;;;;;;;;;;;;;-0.51;75.15;98357.47;5052736;28;19958;-75
2022/01/14 01:14:33;;;;;;;;;;;;;;;-0.65;75.55;98360.13;5042831;28;19956;-75
2022/01/14 01:16:59;;;;;;;;;;;;;;;-0.76;76.07;98360.00;5054360;28;19956;-75
2022/01/14 01:19:25;;;;;;;;;;;;;;;-0.88;76.44;98359.06;5057146;28;19967;-75
2022/01/14 01:21:52;;;;;;;;;;;;;;;-0.96;76.96;98353.56;5052837;28;19969;-75
2022/01/14 01:24:18;;;;;;;;;;;;;;;-1.06;77.27;98355.88;5049200;28;20311;-75
2022/01/14 01:26:44;;;;;;;;;;;;;;;-1.13;77.56;98358.03;5061681;28;19962;-75
2022/01/14 01:31:40;;;;;;;;;;;;;;;-1.25;78.04;98356.22;5046472;28;19962;-75
2022/01/14 01:34:11;;;;;;;;;;;;;;;-1.30;77.98;98358.25;5058419;28;19952;-75
2022/01/14 01:36:37;;;;;;;;;;;;;;;-1.34;78.00;98354.25;5031019;28;19967;-75
2022/01/14 01:39:04;;;;;;;;;;;;;;;-1.39;77.88;98349.34;5065435;28;19954;-75
2022/01/14 01:41:31;;;;;;;;;;;;;;;-1.44;78.03;98356.53;5056918;28;19977;-75
2022/01/14 01:43:57;;;;;;;;;;;;;;;-1.49;77.84;98346.53;5060045;28;19962;-76
2022/01/14 01:46:24;;;;;;;;;;;;;;;-1.54;78.19;98353.72;5069007;28;19947;-75
2022/01/14 01:48:51;;;;;;;;;;;;;;;-1.58;77.93;98357.38;5059024;28;20391;-75
2022/01/14 01:51:18;;;;;;;;;;;;;;;-1.63;78.40;98352.53;5043274;28;19978;-75
2022/01/14 01:53:44;;;;;;;;;;;;;;;-1.66;78.71;98357.88;5036092;28;19958;-75
2022/01/14 01:56:10;;;;;;;;;;;;;;;-1.67;78.93;98360.53;5054394;28;20314;-75
2022/01/14 01:58:35;;;;;;;;;;;;;;;-1.68;79.27;98358.88;5028075;28;19957;-75
2022/01/14 02:01:03;;;;;;;;;;;;;;;-1.69;79.43;98352.09;5058557;28;19962;-74
2022/01/14 02:03:29;;;;;;;;;;;;;;;-1.69;79.50;98359.81;5053903;28;20338;-75
2022/01/14 02:05:55;;;;;;;;;;;;;;;-1.70;79.28;98347.84;5056186;28;20057;-74
2022/01/14 02:08:21;;;;;;;;;;;;;;;-1.74;78.93;98346.38;5054961;28;19949;-74
2022/01/14 02:10:53;;;;;;;;;;;;;;;-1.78;78.48;98355.22;5049690;28;20497;-74
2022/01/14 02:13:19;;;;;;;;;;;;;;;-1.82;78.51;98348.63;5062198;28;19954;-74
2022/01/14 02:23:38;;;;;;;;;;;;;;;-1.91;79.24;98353.41;5058123;28;19963;-74
2022/01/14 02:26:04;;;;;;;;;;;;;;;-1.92;79.12;98356.06;5053579;28;19957;-74
2022/01/14 02:28:31;;;;;;;;;;;;;;;-1.92;79.15;98356.06;5057930;28;19959;-74
2022/01/14 02:30:57;;;;;;;;;;;;;;;-1.96;78.97;98350.25;5041770;28;19952;-75
2022/01/14 02:33:23;;;;;;;;;;;;;;;-2.00;79.05;98345.41;5053732;28;20011;-75
2022/01/14 02:35:49;;;;;;;;;;;;;;;-2.02;79.07;98345.47;5043805;28;19964;-75
2022/01/14 02:38:16;;;;;;;;;;;;;;;-2.04;78.92;98344.75;5057195;28;19955;-75
2022/01/14 02:40:42;;;;;;;;;;;;;;;-2.05;79.21;98340.53;5062927;28;19967;-75
2022/01/14 02:43:13;;;;;;;;;;;;;;;-2.08;78.88;98351.84;5059537;28;19968;-75
2022/01/14 02:45:46;;;;;;;;;;;;;;;-2.10;79.01;98350.25;5050366;28;19954;-75
2022/01/14 02:48:12;;;;;;;;;;;;;;;-2.12;79.00;98354.66;5051280;28;20021;-74
2022/01/14 02:50:55;;;;;;;;;;;;;;;-2.14;79.25;98353.91;5057255;28;20385;-74
2022/01/14 02:53:41;;;;;;;;;;;;;;;-2.19;78.98;98343.91;5058039;28;19966;-75
2022/01/14 02:56:08;;;;;;;;;;;;;;;-2.23;78.94;98345.00;5055951;28;19956;-75
2022/01/14 02:58:35;;;;;;;;;;;;;;;-2.27;78.97;98336.69;5061315;28;19953;-76
2022/01/14 03:01:06;;;;;;;;;;;;;;;-2.29;78.40;98328.22;5054289;28;19954;-75
2022/01/14 03:03:33;;;;;;;;;;;;;;;-2.29;78.88;98329.94;5035258;28;19952;-75
2022/01/14 03:06:00;;;;;;;;;;;;;;;-2.30;79.01;98328.31;5055916;28;19953;-75
2022/01/14 03:08:25;;;;;;;;;;;;;;;-2.30;79.61;98336.84;5049328;28;19953;-74
2022/01/14 03:10:58;;;;;;;;;;;;;;;-2.31;79.57;98327.50;5055543;28;19965;-75
2022/01/14 03:13:25;;;;;;;;;;;;;;;-2.31;79.69;98326.66;5065416;28;19948;-75
2022/01/14 03:15:51;;;;;;;;;;;;;;;-2.32;80.13;98319.88;5062768;28;20351;-75
2022/01/14 03:18:22;;;;;;;;;;;;;;;-2.31;80.36;98327.50;5027876;28;19964;-74
2022/01/14 03:20:50;;;;;;;;;;;;;;;-2.32;80.51;98325.81;5057887;28;20410;-74
2022/01/14 03:23:18;;;;;;;;;;;;;;;-2.31;80.38;98312.06;5059912;28;19967;-74
2022/01/14 03:25:51;;;;;;;;;;;;;;;-2.32;80.76;98312.97;5055398;28;19959;-74
2022/01/14 03:28:21;;;;;;;;;;;;;;;-2.31;81.07;98311.22;5050945;28;19949;-74
2022/01/14 03:30:48;;;;;;;;;;;;;;;-2.33;81.33;98292.50;5050205;28;19955;-75
2022/01/14 03:33:14;;;;;;;;;;;;;;;-2.33;81.24;98302.78;5057242;28;19954;-76
2022/01/14 03:35:40;;;;;;;;;;;;;;;-2.34;81.23;98301.16;5034753;28;20047;-76
2022/01/14 03:38:06;;;;;;;;;;;;;;;-2.36;81.33;98290.13;5053753;28;19959;-76
2022/01/14 03:40:32;;;;;;;;;;;;;;;-2.36;81.07;98283.25;5049728;28;20000;-76
2022/01/14 03:42:58;;;;;;;;;;;;;;;-2.36;81.62;98285.00;5068630;28;19980;-75
2022/01/14 03:45:24;;;;;;;;;;;;;;;-2.36;82.16;98288.38;5038434;28;19965;-75
2022/01/14 03:47:50;;;;;;;;;;;;;;;-2.37;81.88;98291.03;5053044;28;19960;-75
2022/01/14 03:50:16;;;;;;;;;;;;;;;-2.37;81.85;98297.03;5061905;28;19954;-75
2022/01/14 03:52:42;;;;;;;;;;;;;;;-2.38;81.81;98295.34;5054349;28;20022;-76
2022/01/14 03:55:08;;;;;;;;;;;;;;;-2.36;81.39;98290.13;5045993;28;19964;-74
2022/01/14 03:57:34;;;;;;;;;;;;;;;-2.39;81.52;98280.88;5045561;28;19984;-73
2022/01/14 04:00:00;;;;;;;;;;;;;;;-2.37;81.63;98288.47;5053535;28;19954;-76
2022/01/14 04:02:25;;;;;;;;;;;;;;;-2.39;81.50;98280.88;5052475;28;19965;-75
2022/01/14 04:04:51;;;;;;;;;;;;;;;-2.39;81.53;98282.59;5052863;28;19994;-75
2022/01/14 04:07:17;;;;;;;;;;;;;;;-2.39;81.71;98287.72;5054963;28;19996;-75
2022/01/14 04:09:43;;;;;;;;;;;;;;;-2.38;81.73;98286.81;5057819;28;19960;-75
2022/01/14 04:12:16;;;;;;;;;;;;;;;-2.40;81.46;98291.22;5052796;28;20407;-75
2022/01/14 04:17:10;;;;;;;;;;;;;;;-2.42;81.21;98281.03;5055771;28;19952;-74
2022/01/14 04:19:36;;;;;;;;;;;;;;;-2.42;81.25;98275.06;5051178;28;20454;-75
2022/01/14 04:22:02;;;;;;;;;;;;;;;-2.42;80.89;98272.50;5048318;28;19972;-75
2022/01/14 04:24:28;;;;;;;;;;;;;;;-2.44;80.94;98267.44;5053491;28;20424;-75
2022/01/14 04:26:54;;;;;;;;;;;;;;;-2.45;80.66;98266.63;5055781;28;20011;-74
2022/01/14 04:29:20;;;;;;;;;;;;;;;-2.45;80.82;98258.94;5058429;28;20007;-75
2022/01/14 04:31:46;;;;;;;;;;;;;;;-2.46;80.99;98254.72;5059525;28;19966;-74
2022/01/14 04:34:15;;;;;;;;;;;;;;;-2.46;80.96;98259.84;5064038;28;20331;-75
2022/01/14 04:36:44;;;;;;;;;;;;;;;-2.46;81.07;98259.00;5063857;28;19960;-75
2022/01/14 04:39:10;;;;;;;;;;;;;;;-2.48;81.16;98251.41;5053990;28;19951;-74
2022/01/14 04:41:36;;;;;;;;;;;;;;;-2.46;81.09;98251.31;5055580;28;20325;-75
2022/01/14 04:44:02;;;;;;;;;;;;;;;-2.47;80.83;98255.63;5036269;28;19957;-77
2022/01/14 04:49:06;;;;;;;;;;;;;;;-2.49;80.85;98254.88;5055678;28;19955;-75
2022/01/14 04:51:32;;;;;;;;;;;;;;;-2.51;80.70;98248.19;5060061;28;19987;-74
2022/01/14 04:53:59;;;;;;;;;;;;;;;-2.52;80.35;98249.09;5038222;28;19956;-75
2022/01/14 04:56:24;;;;;;;;;;;;;;;-2.53;80.27;98244.88;5056442;28;19953;-73
2022/01/14 04:58:50;;;;;;;;;;;;;;;-2.55;80.20;98247.53;5058561;28;20361;-75
2022/01/14 05:01:16;;;;;;;;;;;;;;;-2.57;80.20;98248.56;5045023;28;20374;-75
2022/01/14 05:03:42;;;;;;;;;;;;;;;-2.59;80.18;98247.81;5068212;28;19978;-75
2022/01/14 05:06:08;;;;;;;;;;;;;;;-2.62;80.31;98246.25;5068287;28;20039;-75
2022/01/14 05:08:37;;;;;;;;;;;;;;;-2.66;80.10;98245.63;5051199;28;20420;-75
2022/01/14 05:13:44;;;;;;;;;;;;;;;-2.70;80.28;98235.63;5055883;28;19965;-74
2022/01/14 05:16:10;;;;;;;;;;;;;;;-2.72;80.16;98234.88;5070261;28;19954;-75
2022/01/14 05:18:38;;;;;;;;;;;;;;;-2.73;80.09;98233.22;5049138;28;20404;-75
2022/01/14 05:21:04;;;;;;;;;;;;;;;-2.73;81.00;98228.94;5055677;28;19964;-75
2022/01/14 05:23:30;;;;;;;;;;;;;;;-2.73;81.09;98230.66;5058316;28;20414;-75
2022/01/14 05:25:56;;;;;;;;;;;;;;;-2.73;80.65;98223.78;5055629;28;19949;-75
2022/01/14 05:28:22;;;;;;;;;;;;;;;-2.74;80.21;98224.69;5057407;28;20512;-75
2022/01/14 05:30:48;;;;;;;;;;;;;;;-2.77;80.53;98235.16;5037211;28;19977;-75
2022/01/14 05:33:15;;;;;;;;;;;;;;;-2.78;80.10;98230.91;5060354;28;20402;-75
2022/01/14 05:35:41;;;;;;;;;;;;;;;-2.80;80.21;98235.31;5065784;28;19955;-75
2022/01/14 05:38:08;;;;;;;;;;;;;;;-2.81;79.84;98236.25;5053404;28;20308;-75
2022/01/14 05:40:34;;;;;;;;;;;;;;;-2.82;79.52;98226.06;5043605;28;19967;-76
2022/01/14 05:43:00;;;;;;;;;;;;;;;-2.83;80.19;98235.50;5055912;28;19973;-75
2022/01/14 05:45:26;;;;;;;;;;;;;;;-2.84;80.04;98238.16;5061137;28;19946;-75
2022/01/14 05:47:52;;;;;;;;;;;;;;;-2.86;79.66;98235.69;5053957;28;20408;-75
2022/01/14 05:50:20;;;;;;;;;;;;;;;-2.87;79.78;98242.56;5047591;28;20011;-75
2022/01/14 05:52:46;;;;;;;;;;;;;;;-2.88;79.50;98237.50;5054029;28;19955;-75
2022/01/14 05:55:14;;;;;;;;;;;;;;;-2.89;79.61;98235.88;5053184;28;19958;-75
2022/01/14 05:57:40;;;;;;;;;;;;;;;-2.88;79.52;98238.34;5054729;28;19968;-75
2022/01/14 06:00:11;;;;;;;;;;;;;;;-2.89;79.49;98235.88;5057166;28;19955;-74
2022/01/14 06:02:36;;;;;;;;;;;;;;;-2.90;79.67;98235.06;5051985;28;19969;-75
2022/01/14 06:05:02;;;;;;;;;;;;;;;-2.89;79.92;98238.44;5061756;28;20385;-75
2022/01/14 06:07:28;;;;;;;;;;;;;;;-2.89;79.79;98238.44;5063445;28;19962;-76
2022/01/14 06:09:54;;;;;;;;;;;;;;;-2.53;98.52;98240.56;5049788;28;19959;-74
2022/01/14 06:12:20;;;;;;;;;;;;;;;-1.94;100.00;98240.41;5044431;28;20054;-75
2022/01/14 06:14:46;;;;;;;;;;;;;;;-1.41;100.00;98237.13;5067461;28;20327;-75
2022/01/14 06:17:12;;;;;;;;;;;;;;;-0.94;100.00;98244.38;5052840;28;19957;-75
2022/01/14 06:19:38;;;;;;;;;;;;;;;-0.66;99.54;98237.38;5051476;28;19955;-76
2022/01/14 06:22:04;;;;;;;;;;;;;;;-0.75;85.29;98228.50;5055905;28;19965;-75
2022/01/14 06:24:30;;;;;;;;;;;;;;;-0.97;81.38;98229.09;5061432;28;19993;-75
2022/01/14 06:26:56;;;;;;;;;;;;;;;-1.23;79.85;98229.06;5062353;28;20505;-74
2022/01/14 06:29:22;;;;;;;;;;;;;;;-1.00;97.89;98224.16;5053764;28;20309;-74
2022/01/14 06:31:48;;;;;;;;;;;;;;;-0.49;100.00;98229.31;5043839;28;20322;-74
2022/01/14 06:34:16;;;;;;;;;;;;;;;-0.37;83.51;98232.81;5052485;28;19963;-74
2022/01/14 06:36:43;;;;;;;;;;;;;;;-0.58;79.33;98229.13;5055437;28;19959;-75
2022/01/14 06:39:09;;;;;;;;;;;;;;;-0.88;78.22;98232.84;5052485;28;19964;-75
2022/01/14 06:41:35;;;;;;;;;;;;;;;-1.17;78.34;98225.28;5048934;28;20353;-73
2022/01/14 06:44:01;;;;;;;;;;;;;;;-1.40;78.29;98231.09;5050554;28;19972;-73
2022/01/14 06:46:27;;;;;;;;;;;;;;;-1.62;78.36;98227.28;5057784;28;20005;-75
2022/01/14 06:48:53;;;;;;;;;;;;;;;-1.82;78.82;98225.16;5068395;28;19964;-75
2022/01/14 06:51:19;;;;;;;;;;;;;;;-1.99;79.17;98227.03;5059184;28;20009;-74
2022/01/14 06:53:45;;;;;;;;;;;;;;;-2.11;79.66;98220.91;5028995;28;19977;-75
2022/01/14 06:56:11;;;;;;;;;;;;;;;-2.21;79.86;98226.69;5055479;28;20423;-74
2022/01/14 06:58:37;;;;;;;;;;;;;;;-2.29;80.11;98229.72;5063647;28;19961;-74
2022/01/14 07:01:04;;;;;;;;;;;;;;;-2.37;80.07;98230.22;5057249;28;20405;-77
2022/01/14 07:03:30;;;;;;;;;;;;;;;-2.40;80.48;98235.53;5055172;28;19965;-76
2022/01/14 07:05:56;;;;;;;;;;;;;;;-2.43;80.60;98232.34;5058492;28;19952;-75
2022/01/14 07:08:22;;;;;;;;;;;;;;;-2.47;80.96;98222.22;5052610;28;19999;-75
2022/01/14 07:10:48;;;;;;;;;;;;;;;-2.49;81.05;98230.94;5052887;28;19993;-74
2022/01/14 07:13:14;;;;;;;;;;;;;;;-2.52;81.14;98228.53;5051590;28;19965;-75
2022/01/14 07:15:40;;;;;;;;;;;;;;;-2.53;81.40;98232.03;5054728;28;19956;-75
2022/01/14 07:18:06;;;;;;;;;;;;;;;-2.54;81.57;98238.09;5063242;28;19961;-75
2022/01/14 07:20:32;;;;;;;;;;;;;;;-2.56;81.55;98238.19;5052349;28;20329;-76
2022/01/14 07:22:58;;;;;;;;;;;;;;;-2.56;81.38;98234.78;5043519;28;20020;-75
2022/01/14 07:25:23;;;;;;;;;;;;;;;-2.56;81.66;98237.34;5061322;28;19985;-75
2022/01/14 07:27:50;;;;;;;;;;;;;;;-2.57;81.58;98233.97;5052247;28;19971;-75
2022/01/14 07:30:16;;;;;;;;;;;;;;;-2.55;81.46;98236.44;5047812;28;19954;-75
2022/01/14 07:32:43;;;;;;;;;;;;;;;-2.54;81.54;98244.06;5053621;28;19957;-75
2022/01/14 07:35:09;;;;;;;;;;;;;;;-2.54;81.25;98245.78;5060809;28;19961;-75
2022/01/14 07:37:35;;;;;;;;;;;;;;;-2.54;81.71;98240.66;5051683;28;19961;-74
2022/01/14 07:40:01;;;;;;;;;;;;;;;-2.53;81.77;98253.41;5047708;28;20424;-74
2022/01/14 07:42:26;;;;;;;;;;;;;;;-2.53;81.45;98250.03;5059552;28;19964;-74
2022/01/14 07:44:52;;;;;;;;;;;;;;;-2.53;81.10;98255.16;5020920;28;19970;-75
2022/01/14 07:47:18;;;;;;;;;;;;;;;-2.52;81.49;98264.50;5048472;28;19961;-75
2022/01/14 07:49:44;;;;;;;;;;;;;;;-2.52;81.24;98256.81;5054530;28;19957;-74
2022/01/14 07:52:10;;;;;;;;;;;;;;;-2.46;81.20;98261.56;5061120;28;20405;-75
2022/01/14 07:54:36;;;;;;;;;;;;;;;-2.37;81.45;98260.19;5040294;28;19952;-75
2022/01/14 07:57:03;;;;;;;;;;;;;;;-2.23;80.81;98254.25;5056269;28;19958;-75
2022/01/14 07:59:30;;;;;;;;;;;;;;;-2.05;80.73;98260.84;5067422;28;19963;-75
2022/01/14 08:01:58;;;;;;;;;;;;;;;-1.82;80.20;98259.44;5048870;28;20328;-75
2022/01/14 08:04:24;;;;;;;;;;;;;;;-1.54;79.93;98242.25;5050372;28;20058;-75
2022/01/14 08:06:53;;;;;;;;;;;;;;;-1.27;78.77;98249.97;5055888;28;20330;-74
2022/01/14 08:09:20;;;;;;;;;;;;;;;-1.01;78.31;98248.25;5044970;28;19951;-76
2022/01/14 08:11:46;;;;;;;;;;;;;;;-0.76;77.65;98246.63;5034128;28;19956;-75
2022/01/14 08:14:13;;;;;;;;;;;;;;;-0.60;77.02;98244.69;5059424;28;19964;-75
2022/01/14 08:16:39;;;;;;;;;;;;;;;-0.37;76.99;98250.88;5048092;28;19949;-74
2022/01/14 08:19:05;;;;;;;;;;;;;;;-0.14;76.12;98248.47;5050007;28;20297;-75
2022/01/14 08:21:31;;;;;;;;;;;;;;;0.08;75.69;98250.38;5055313;28;19964;-75
2022/01/14 08:23:57;;;;;;;;;;;;;;;0.29;75.28;98248.84;5059145;28;19974;-75
2022/01/14 08:26:23;;;;;;;;;;;;;;;0.50;74.72;98251.66;5059756;28;19964;-75
2022/01/14 08:28:49;;;;;;;;;;;;;;;0.72;74.44;98250.97;5039186;28;19962;-76
2022/01/14 08:31:16;;;;;;;;;;;;;;;0.95;73.90;98251.06;5062412;28;20047;-74
2022/01/14 08:33:42;;;;;;;;;;;;;;;1.15;73.18;98247.78;5054851;28;19956;-75
2022/01/14 08:36:09;;;;;;;;;;;;;;;1.29;72.47;98254.53;5045236;28;20315;-75
2022/01/14 08:38:34;;;;;;;;;;;;;;;1.40;72.39;98251.16;5059782;28;19967;-75
2022/01/14 08:41:00;;;;;;;;;;;;;;;1.54;72.19;98255.28;5054369;28;19962;-74
2022/01/14 08:43:26;;;;;;;;;;;;;;;1.66;71.81;98256.94;5055811;28;19969;-74
2022/01/14 08:45:52;;;;;;;;;;;;;;;1.78;71.68;98257.75;5043412;28;19960;-74
2022/01/14 08:48:18;;;;;;;;;;;;;;;1.91;71.41;98262.81;5060546;28;19980;-75
2022/01/14 08:50:45;;;;;;;;;;;;;;;2.02;70.90;98260.22;5062691;28;19983;-75
2022/01/14 08:53:13;;;;;;;;;;;;;;;2.08;70.06;98253.72;5056688;28;20421;-74
2022/01/14 08:55:40;;;;;;;;;;;;;;;2.15;70.29;98254.91;5054870;28;20433;-74
2022/01/14 08:58:06;;;;;;;;;;;;;;;2.15;70.17;98258.31;5057671;28;19960;-76
2022/01/14 09:00:32;;;;;;;;;;;;;;;2.18;70.20;98255.50;5061980;28;19957;-75
2022/01/14 09:02:58;;;;;;;;;;;;;;;2.18;70.00;98249.50;5060648;28;19979;-76
2022/01/14 09:05:24;;;;;;;;;;;;;;;2.21;68.88;98250.06;5053553;28;20129;-75
2022/01/14 09:07:51;;;;;;;;;;;;;;;2.24;69.71;98255.00;5047189;28;20400;-75
2022/01/14 09:10:17;;;;;;;;;;;;;;;2.26;68.60;98241.94;5063576;28;19958;-74
2022/01/14 09:12:43;;;;;;;;;;;;;;;2.15;69.01;98250.56;5061370;28;19964;-74
2022/01/14 09:15:09;;;;;;;;;;;;;;;2.23;69.56;98245.59;5049707;28;20415;-76
2022/01/14 09:17:35;;;;;;;;;;;;;;;2.36;69.95;98245.47;5054592;28;19960;-74
2022/01/14 09:20:03;;;;;;;;;;;;;;;2.53;69.84;98246.69;5058682;28;20308;-75
2022/01/14 09:22:31;;;;;;;;;;;;;;;2.67;70.16;98247.34;5059514;28;19962;-75
2022/01/14 09:24:59;;;;;;;;;;;;;;;2.80;69.24;98254.03;5044316;28;19948;-75
2022/01/14 09:27:26;;;;;;;;;;;;;;;2.94;69.03;98247.75;5058503;28;19965;-75
2022/01/14 09:29:54;;;;;;;;;;;;;;;3.09;69.24;98250.00;5053393;28;19958;-75
2022/01/14 09:32:20;;;;;;;;;;;;;;;3.24;68.56;98251.34;5060197;28;19966;-75
2022/01/14 09:34:46;;;;;;;;;;;;;;;3.25;67.76;98245.19;5036895;28;19957;-74
2022/01/14 09:37:12;;;;;;;;;;;;;;;3.04;67.69;98252.97;5059747;28;20366;-75
2022/01/14 09:39:43;;;;;;;;;;;;;;;2.94;66.48;98247.75;5058124;28;20450;-74
2022/01/14 09:42:09;;;;;;;;;;;;;;;2.84;68.82;98265.78;5041096;28;20297;-75
2022/01/14 09:44:35;;;;;;;;;;;;;;;2.85;67.98;98257.06;5054952;28;20347;-75
2022/01/14 09:47:02;;;;;;;;;;;;;;;2.73;68.14;98259.81;5062595;28;19968;-74
2022/01/14 09:49:28;;;;;;;;;;;;;;;2.60;69.10;98273.78;5056159;28;19960;-75
2022/01/14 09:51:54;;;;;;;;;;;;;;;2.63;69.54;98264.94;5054167;28;20437;-74
2022/01/14 09:54:20;;;;;;;;;;;;;;;2.80;70.21;98271.34;5059831;28;19957;-74
2022/01/14 09:56:46;;;;;;;;;;;;;;;2.94;69.15;98268.47;5056690;28;19962;-74
2022/01/14 09:59:12;;;;;;;;;;;;;;;3.08;69.03;98263.91;5062158;28;19960;-74
2022/01/14 10:01:39;;;;;;;;;;;;;;;3.22;69.03;98268.81;5051559;28;19953;-74
2022/01/14 10:04:06;;;;;;;;;;;;;;;3.35;69.18;98263.41;5055595;28;20415;-75
2022/01/14 10:06:49;;;;;;;;;;;;;;;3.46;68.26;98268.53;5050039;28;20021;-75
2022/01/14 10:09:33;;;;;;;;;;;;;;;3.48;68.89;98277.00;5050911;28;19963;-74
2022/01/14 10:12:05;;;;;;;;;;;;;;;3.45;67.79;98267.72;5055977;28;20411;-74
2022/01/14 10:14:32;;;;;;;;;;;;;;;3.57;68.04;98268.47;5054849;28;19956;-75
2022/01/14 10:16:59;;;;;;;;;;;;;;;3.54;67.71;98266.13;5060188;28;19955;-74
2022/01/14 10:19:29;;;;;;;;;;;;;;;3.64;67.86;98261.00;5047815;28;19962;-75
2022/01/14 10:21:56;;;;;;;;;;;;;;;3.74;65.28;98248.88;5047530;28;19968;-75
2022/01/14 10:24:23;;;;;;;;;;;;;;;3.74;65.43;98253.22;5063341;28;19963;-75
2022/01/14 10:26:51;;;;;;;;;;;;;;;3.73;65.62;98249.81;5056610;28;19968;-75
2022/01/14 10:29:26;;;;;;;;;;;;;;;3.83;65.72;98252.47;5048150;28;19949;-75
2022/01/14 10:31:52;;;;;;;;;;;;;;;4.01;66.22;98256.09;5049839;28;19981;-75
2022/01/14 10:34:18;;;;;;;;;;;;;;;4.12;66.05;98249.16;5067893;28;19964;-77
2022/01/14 10:36:46;;;;;;;;;;;;;;;4.13;65.45;98241.22;5054357;28;19963;-75
2022/01/14 10:39:22;;;;;;;;;;;;;;;4.14;66.77;98261.06;5051936;28;20453;-75
2022/01/14 10:41:49;;;;;;;;;;;;;;;4.12;64.15;98236.19;5050776;28;19950;-75
2022/01/14 10:44:31;;;;;;;;;;;;;;;4.27;64.46;98225.28;5066047;28;19986;-75
2022/01/14 10:47:10;;;;;;;;;;;;;;;4.43;64.47;98222.16;5052690;28;20423;-75
2022/01/14 10:49:37;;;;;;;;;;;;;;;4.50;63.14;98216.44;5066127;28;19983;-77
2022/01/14 10:52:13;;;;;;;;;;;;;;;4.60;65.29;98233.66;5048268;28;20382;-75
2022/01/14 10:54:45;;;;;;;;;;;;;;;4.65;64.07;98218.47;5052069;28;20439;-76
2022/01/14 10:57:16;;;;;;;;;;;;;;;4.59;63.62;98216.41;5047357;28;19955;-74
2022/01/14 10:59:42;;;;;;;;;;;;;;;4.60;64.19;98219.81;5055590;28;19955;-75
2022/01/14 11:02:28;;;;;;;;;;;;;;;4.56;63.93;98227.09;5052462;28;19964;-75
2022/01/14 11:05:04;;;;;;;;;;;;;;;4.56;71.17;98240.09;5035443;28;19966;-76
2022/01/14 11:07:31;;;;;;;;;;;;;;;5.29;81.84;98235.25;5035358;28;19958;-75
2022/01/14 11:09:57;;;;;;;;;;;;;;;6.24;71.40;98220.38;5073696;28;19958;-76
2022/01/14 11:12:24;;;;;;;;;;;;;;;6.80;60.88;98158.47;5049233;28;19965;-75
2022/01/14 11:14:50;;;;;;;;;;;;;;;6.66;63.70;98187.72;5045580;28;19975;-74
2022/01/14 11:17:16;;;;;;;;;;;;;;;6.20;58.46;98120.03;5053827;28;19952;-75
2022/01/14 11:19:46;;;;;;;;;;;;;;;5.96;61.76;98162.28;5065060;28;20418;-74
2022/01/14 11:24:57;;;;;;;;;;;;;;;5.72;60.91;98160.19;5052256;28;20414;-75
2022/01/14 11:27:23;;;;;;;;;;;;;;;5.66;63.79;98182.41;5051875;28;20397;-75
2022/01/14 11:29:51;;;;;;;;;;;;;;;5.58;61.12;98153.66;5061382;28;19969;-75
2022/01/14 11:32:17;;;;;;;;;;;;;;;5.58;62.29;98163.25;5060792;28;19951;-75
2022/01/14 11:34:44;;;;;;;;;;;;;;;5.55;62.40;98164.38;5054285;28;19969;-74
2022/01/14 11:37:17;;;;;;;;;;;;;;;5.59;62.89;98163.13;5048087;28;20409;-75
2022/01/14 11:39:56;;;;;;;;;;;;;;;5.56;62.74;98152.97;5056724;28;19953;-75
2022/01/14 11:42:41;;;;;;;;;;;;;;;5.54;63.53;98149.72;5040430;28;19952;-75
2022/01/14 11:45:07;;;;;;;;;;;;;;;5.52;64.60;98161.22;5054765;28;20397;-75
2022/01/14 11:47:39;;;;;;;;;;;;;;;5.66;71.81;98169.38;5056074;28;19952;-79
2022/01/14 11:50:07;;;;;;;;;;;;;;;6.33;67.08;98150.13;5060061;28;19967;-76
2022/01/14 11:52:43;;;;;;;;;;;;;;;6.66;60.28;98099.09;5034187;28;19979;-76
2022/01/14 11:55:14;;;;;;;;;;;;;;;6.64;60.90;98108.84;5053141;28;19955;-76
2022/01/14 11:57:44;;;;;;;;;;;;;;;6.49;59.70;98100.75;5060641;28;19956;-76
2022/01/14 12:00:30;;;;;;;;;;;;;;;6.40;59.52;98092.03;5053654;28;19967;-76
2022/01/14 12:02:57;;;;;;;;;;;;;;;6.34;62.00;98120.47;5043441;28;19971;-75
2022/01/14 12:05:28;;;;;;;;;;;;;;;6.34;62.33;98115.25;5044511;28;19973;-76
2022/01/14 12:07:57;;;;;;;;;;;;;;;6.27;62.27;98110.66;5069223;28;19945;-76
2022/01/14 12:10:30;;;;;;;;;;;;;;;6.15;61.97;98114.44;5045080;28;19961;-76
2022/01/14 12:13:15;;;;;;;;;;;;;;;6.03;60.57;98107.84;5060293;28;19960;-76
2022/01/14 12:15:55;;;;;;;;;;;;;;;5.98;61.77;98117.84;5056206;28;19954;-76
2022/01/14 12:18:40;;;;;;;;;;;;;;;5.78;59.52;98086.72;5065042;28;19960;-76
2022/01/14 12:21:06;;;;;;;;;;;;;;;5.67;61.31;98105.16;5044789;28;20421;-76
2022/01/14 12:23:32;;;;;;;;;;;;;;;5.69;62.66;98119.66;5054827;28;19976;-76
2022/01/14 12:26:11;;;;;;;;;;;;;;;5.74;62.16;98111.41;5061079;28;19947;-76
2022/01/14 12:28:37;;;;;;;;;;;;;;;5.72;62.87;98115.94;5065957;28;19954;-77
2022/01/14 12:31:03;;;;;;;;;;;;;;;5.70;62.05;98112.66;5038063;28;19961;-76
2022/01/14 12:33:42;;;;;;;;;;;;;;;5.69;62.37;98111.00;5062361;28;19965;-76
2022/01/14 12:36:10;;;;;;;;;;;;;;;5.69;61.99;98100.59;5049962;28;19945;-76
2022/01/14 12:38:40;;;;;;;;;;;;;;;5.69;62.74;98098.81;5058409;28;19962;-76
2022/01/14 12:41:24;;;;;;;;;;;;;;;5.62;61.59;98084.75;5054844;28;19951;-76
2022/01/14 12:43:51;;;;;;;;;;;;;;;5.55;61.56;98081.09;5051432;28;19967;-76
2022/01/14 12:46:34;;;;;;;;;;;;;;;5.54;63.77;98096.84;5046096;28;19949;-77
2022/01/14 12:49:05;;;;;;;;;;;;;;;5.60;62.99;98072.84;5038248;28;19959;-76
2022/01/14 12:51:32;;;;;;;;;;;;;;;5.67;62.69;98059.09;5043101;28;19979;-76
2022/01/14 12:53:59;;;;;;;;;;;;;;;5.68;62.96;98062.53;5075197;28;19965;-75
2022/01/14 12:56:29;;;;;;;;;;;;;;;5.71;64.31;98075.22;5067067;28;20535;-76
2022/01/14 12:58:55;;;;;;;;;;;;;;;5.81;64.31;98068.19;5058147;28;19963;-76
2022/01/14 13:01:25;;;;;;;;;;;;;;;5.85;64.72;98066.91;5063409;28;19998;-76
2022/01/14 13:03:53;;;;;;;;;;;;;;;5.81;64.01;98059.56;5037440;28;20418;-76
2022/01/14 13:06:19;;;;;;;;;;;;;;;5.82;62.15;98048.19;5054950;28;19974;-76
2022/01/14 13:08:52;;;;;;;;;;;;;;;5.80;62.00;98050.13;5054479;28;19967;-77
2022/01/14 13:11:18;;;;;;;;;;;;;;;5.82;63.36;98061.22;5053278;28;19955;-76
2022/01/14 13:13:45;;;;;;;;;;;;;;;5.84;61.22;98034.06;5051063;28;19968;-76
2022/01/14 13:16:14;;;;;;;;;;;;;;;5.92;62.05;98050.72;5059282;28;19953;-76
2022/01/14 13:18:44;;;;;;;;;;;;;;;5.97;62.45;98051.13;5051869;28;20394;-77
2022/01/14 13:21:10;;;;;;;;;;;;;;;6.04;61.84;98041.75;5054183;28;20414;-77
2022/01/14 13:23:36;;;;;;;;;;;;;;;6.08;60.83;98040.47;5041174;28;19992;-76
2022/01/14 13:26:02;;;;;;;;;;;;;;;6.12;61.43;98035.78;5060335;28;20046;-76
2022/01/14 13:28:28;;;;;;;;;;;;;;;6.16;61.76;98042.34;5056953;28;20029;-76